createdAt,value
2018-09-19T00:00:14.858Z,19.05
2018-09-19T00:02:43.902Z,19.01
2018-09-19T00:05:12.829Z,19.02
2018-09-19T00:07:41.772Z,18.97
2018-09-19T00:10:10.732Z,18.95
2018-09-19T00:12:39.625Z,18.96
2018-09-19T00:15:08.549Z,18.87
2018-09-19T00:17:37.523Z,18.82
2018-09-19T00:20:06.661Z,18.81
2018-09-19T00:22:35.655Z,18.81
2018-09-19T00:25:04.575Z,18.79
2018-09-19T00:27:33.527Z,18.75
2018-09-19T00:30:02.501Z,18.76
2018-09-19T00:32:31.510Z,18.73
2018-09-19T00:35:00.413Z,18.76
2018-09-19T00:37:29.337Z,18.75
2018-09-19T00:39:58.257Z,18.74
2018-09-19T00:42:27.185Z,18.61
2018-09-19T00:44:56.155Z,18.54
2018-09-19T00:47:25.059Z,18.52
2018-09-19T00:49:53.978Z,18.46
2018-09-19T00:52:22.930Z,18.43
2018-09-19T00:54:51.861Z,18.44
2018-09-19T00:57:20.841Z,18.34
2018-09-19T00:59:49.848Z,18.36
2018-09-19T01:02:18.773Z,18.32
2018-09-19T01:04:47.865Z,18.29
2018-09-19T01:07:16.743Z,18.32
2018-09-19T01:09:45.668Z,18.26
2018-09-19T01:12:14.580Z,18.22
2018-09-19T01:14:43.478Z,18.16
2018-09-19T01:17:12.454Z,18.18
2018-09-19T01:19:41.394Z,18.11
2018-09-19T01:22:10.331Z,18.08
2018-09-19T01:24:39.246Z,18.06
2018-09-19T01:27:08.166Z,18.05
2018-09-19T01:29:37.184Z,17.99
2018-09-19T01:32:06.125Z,18.04
2018-09-19T01:34:35.027Z,18.02
2018-09-19T01:37:03.951Z,17.98
2018-09-19T01:39:32.931Z,17.98
2018-09-19T01:42:01.855Z,17.99
2018-09-19T01:44:30.802Z,17.95
2018-09-19T01:46:59.724Z,17.89
2018-09-19T01:49:28.648Z,17.93
2018-09-19T01:51:57.571Z,17.87
2018-09-19T01:54:26.566Z,17.76
2018-09-19T01:56:55.622Z,17.70
2018-09-19T01:59:24.567Z,17.75
2018-09-19T02:01:53.508Z,17.69
2018-09-19T02:04:22.436Z,17.63
2018-09-19T02:06:51.772Z,17.69
2018-09-19T02:09:20.731Z,17.70
2018-09-19T02:11:49.682Z,17.67
2018-09-19T02:14:18.603Z,17.52
2018-09-19T02:16:47.534Z,17.54
2018-09-19T02:19:16.472Z,17.55
2018-09-19T02:21:45.400Z,17.59
2018-09-19T02:24:14.328Z,17.57
2018-09-19T02:26:43.267Z,17.47
2018-09-19T02:29:12.255Z,17.56
2018-09-19T02:31:41.345Z,17.45
2018-09-19T02:34:10.328Z,17.46
2018-09-19T02:36:39.268Z,17.44
2018-09-19T02:39:09.421Z,17.38
2018-09-19T02:41:38.500Z,17.29
2018-09-19T02:44:07.567Z,17.23
2018-09-19T02:46:36.507Z,17.23
2018-09-19T02:49:05.528Z,17.25
2018-09-19T02:51:34.583Z,17.34
2018-09-19T02:54:03.518Z,17.45
2018-09-19T02:56:32.485Z,17.48
2018-09-19T02:59:01.555Z,17.48
2018-09-19T03:01:30.514Z,17.38
2018-09-19T03:04:00.347Z,17.28
2018-09-19T03:06:29.278Z,17.20
2018-09-19T03:08:58.219Z,17.18
2018-09-19T03:11:27.166Z,17.20
2018-09-19T03:13:56.089Z,17.14
2018-09-19T03:16:25.022Z,17.19
2018-09-19T03:18:53.961Z,17.24
2018-09-19T03:21:22.900Z,17.16
2018-09-19T03:23:51.824Z,17.08
2018-09-19T03:26:20.767Z,16.93
2018-09-19T03:28:49.707Z,16.89
2018-09-19T03:31:18.649Z,16.96
2018-09-19T03:33:47.550Z,16.91
2018-09-19T03:36:16.629Z,16.89
2018-09-19T03:38:45.561Z,16.85
2018-09-19T03:41:14.568Z,16.87
2018-09-19T03:43:43.520Z,16.83
2018-09-19T03:46:12.468Z,16.73
2018-09-19T03:48:42.475Z,16.67
2018-09-19T03:51:11.443Z,16.73
2018-09-19T03:53:40.399Z,16.64
2018-09-19T03:56:09.411Z,16.59
2018-09-19T03:58:38.287Z,16.52
2018-09-19T04:01:07.285Z,16.54
2018-09-19T04:03:36.219Z,16.51
2018-09-19T04:06:05.162Z,16.51
2018-09-19T04:08:34.073Z,16.52
2018-09-19T04:11:03.015Z,16.48
2018-09-19T04:13:31.950Z,16.53
2018-09-19T04:16:00.889Z,16.55
2018-09-19T04:18:30.220Z,16.46
2018-09-19T04:20:59.395Z,16.37
2018-09-19T04:23:28.366Z,16.41
2018-09-19T04:25:57.311Z,16.45
2018-09-19T04:28:26.288Z,16.42
2018-09-19T04:30:55.334Z,16.40
2018-09-19T04:33:24.309Z,16.53
2018-09-19T04:35:53.259Z,16.57
2018-09-19T04:38:22.216Z,16.54
2018-09-19T04:40:51.203Z,16.51
2018-09-19T04:43:20.129Z,16.42
2018-09-19T04:45:49.063Z,16.36
2018-09-19T04:48:24.604Z,16.35
2018-09-19T04:50:53.500Z,16.42
2018-09-19T04:53:22.424Z,16.36
2018-09-19T04:55:51.335Z,16.42
2018-09-19T04:58:20.274Z,16.53
2018-09-19T05:00:49.205Z,16.61
2018-09-19T05:03:18.204Z,16.61
2018-09-19T05:05:47.220Z,16.66
2018-09-19T05:08:16.080Z,16.74
2018-09-19T05:10:44.970Z,16.75
2018-09-19T05:13:13.962Z,16.79
2018-09-19T05:15:42.894Z,16.86
2018-09-19T05:18:11.840Z,16.88
2018-09-19T05:20:40.771Z,17.03
2018-09-19T05:23:09.696Z,17.12
2018-09-19T05:25:38.614Z,17.06
2018-09-19T05:28:07.521Z,17.08
2018-09-19T05:30:36.437Z,17.15
2018-09-19T05:33:05.368Z,17.19
2018-09-19T05:35:34.285Z,17.18
2018-09-19T05:38:03.208Z,17.21
2018-09-19T05:40:32.141Z,17.31
2018-09-19T05:43:01.063Z,17.34
2018-09-19T05:45:29.974Z,17.44
2018-09-19T05:47:58.909Z,17.70
2018-09-19T05:50:34.451Z,18.02
2018-09-19T05:53:03.387Z,18.18
2018-09-19T05:55:32.391Z,18.40
2018-09-19T05:58:01.299Z,18.50
2018-09-19T06:00:30.229Z,18.78
2018-09-19T06:02:59.175Z,19.33
2018-09-19T06:05:28.085Z,19.93
2018-09-19T06:07:57.027Z,20.97
2018-09-19T06:10:25.937Z,21.51
2018-09-19T06:12:54.930Z,21.64
2018-09-19T06:15:23.859Z,21.97
2018-09-19T06:17:52.803Z,22.25
2018-09-19T06:20:21.902Z,22.74
2018-09-19T06:22:50.944Z,22.45
2018-09-19T06:25:20.011Z,22.06
2018-09-19T06:27:49.239Z,22.24
2018-09-19T06:30:18.172Z,22.36
2018-09-19T06:32:47.131Z,22.61
2018-09-19T06:35:16.019Z,23.02
2018-09-19T06:37:44.974Z,23.81
2018-09-19T06:40:13.917Z,23.20
2018-09-19T06:42:42.821Z,23.66
2018-09-19T06:45:11.739Z,24.47
2018-09-19T06:47:44.946Z,24.02
2018-09-19T06:50:13.886Z,23.79
2018-09-19T06:52:42.813Z,23.56
2018-09-19T06:55:11.736Z,23.01
2018-09-19T06:57:40.766Z,22.56
2018-09-19T07:00:09.695Z,22.53
2018-09-19T07:02:38.613Z,22.08
2018-09-19T07:05:07.558Z,21.76
2018-09-19T07:07:36.536Z,21.42
2018-09-19T07:10:05.474Z,21.33
2018-09-19T07:12:34.466Z,21.28
2018-09-19T07:15:03.547Z,21.43
2018-09-19T07:17:32.485Z,21.12
2018-09-19T07:20:01.454Z,21.36
2018-09-19T07:22:30.730Z,21.71
2018-09-19T07:24:59.722Z,21.70
2018-09-19T07:27:28.619Z,21.63
2018-09-19T07:29:57.550Z,21.69
2018-09-19T07:32:26.496Z,22.32
2018-09-19T07:34:55.481Z,22.56
2018-09-19T07:37:24.420Z,22.31
2018-09-19T07:39:53.360Z,22.29
2018-09-19T07:42:22.287Z,22.58
2018-09-19T07:44:51.258Z,22.92
2018-09-19T07:47:20.202Z,23.46
2018-09-19T07:49:49.141Z,23.21
2018-09-19T07:52:18.072Z,23.07
2018-09-19T07:54:47.017Z,23.45
2018-09-19T07:57:15.925Z,23.95
2018-09-19T07:59:44.841Z,23.74
2018-09-19T08:02:13.849Z,23.38
2018-09-19T08:04:42.771Z,23.03
2018-09-19T08:07:11.708Z,23.41
2018-09-19T08:09:40.676Z,23.35
2018-09-19T08:12:09.654Z,23.53
2018-09-19T08:14:38.634Z,24.11
2018-09-19T08:17:07.634Z,24.99
2018-09-19T08:19:36.600Z,25.41
2018-09-19T08:22:05.506Z,25.58
2018-09-19T08:24:34.455Z,25.00
2018-09-19T08:27:03.361Z,24.65
2018-09-19T08:29:32.346Z,24.67
2018-09-19T08:32:01.266Z,24.23
2018-09-19T08:34:30.204Z,24.57
2018-09-19T08:36:59.131Z,25.31
2018-09-19T08:39:28.099Z,25.92
2018-09-19T08:41:57.004Z,26.12
2018-09-19T08:44:25.966Z,26.46
2018-09-19T08:46:54.881Z,26.96
2018-09-19T08:49:23.786Z,26.41
2018-09-19T08:51:53.073Z,26.17
2018-09-19T08:54:22.015Z,26.02
2018-09-19T08:56:50.936Z,25.61
2018-09-19T08:59:19.874Z,25.27
2018-09-19T09:01:48.807Z,24.76
2018-09-19T09:04:17.741Z,24.32
2018-09-19T09:06:46.656Z,24.44
2018-09-19T09:09:15.589Z,24.85
2018-09-19T09:11:44.583Z,25.20
2018-09-19T09:14:13.522Z,25.99
2018-09-19T09:16:42.467Z,27.11
2018-09-19T09:19:11.408Z,28.33
2018-09-19T09:21:40.330Z,28.97
2018-09-19T09:24:09.269Z,29.47
2018-09-19T09:26:38.181Z,30.30
2018-09-19T09:29:07.125Z,29.75
2018-09-19T09:31:36.033Z,30.21
2018-09-19T09:34:05.041Z,29.66
2018-09-19T09:36:33.960Z,30.49
2018-09-19T09:39:02.885Z,32.40
2018-09-19T09:41:31.792Z,31.30
2018-09-19T09:44:00.719Z,31.18
2018-09-19T09:46:29.756Z,32.05
2018-09-19T09:48:58.714Z,31.63
2018-09-19T09:51:27.810Z,31.45
2018-09-19T09:53:56.750Z,30.25
2018-09-19T09:56:25.662Z,29.91
2018-09-19T09:58:54.593Z,30.75
2018-09-19T10:01:23.506Z,31.18
2018-09-19T10:03:52.443Z,32.15
2018-09-19T10:06:21.372Z,32.57
2018-09-19T10:08:50.315Z,32.18
2018-09-19T10:11:19.585Z,30.50
2018-09-19T10:13:48.581Z,31.84
2018-09-19T10:16:17.528Z,31.57
2018-09-19T10:18:46.494Z,31.28
2018-09-19T10:21:15.524Z,31.11
2018-09-19T10:23:44.491Z,31.84
2018-09-19T10:26:13.431Z,31.40
2018-09-19T10:28:42.377Z,31.12
2018-09-19T10:31:11.276Z,31.96
2018-09-19T10:33:40.206Z,31.69
2018-09-19T10:36:09.107Z,32.37
2018-09-19T10:38:38.047Z,33.75
2018-09-19T10:41:07.072Z,33.23
2018-09-19T10:43:36.015Z,32.89
2018-09-19T10:46:04.948Z,34.01
2018-09-19T10:48:33.923Z,34.18
2018-09-19T10:51:03.085Z,34.31
2018-09-19T10:53:32.022Z,33.30
2018-09-19T10:56:01.040Z,33.17
2018-09-19T10:58:29.951Z,34.62
2018-09-19T11:00:58.921Z,34.25
2018-09-19T11:03:27.830Z,34.48
2018-09-19T11:05:56.779Z,35.58
2018-09-19T11:08:25.707Z,33.64
2018-09-19T11:10:54.693Z,32.53
2018-09-19T11:13:23.637Z,32.93
2018-09-19T11:15:52.861Z,32.76
2018-09-19T11:18:21.768Z,33.66
2018-09-19T11:20:50.696Z,33.97
2018-09-19T11:23:19.640Z,34.33
2018-09-19T11:25:48.625Z,33.93
2018-09-19T11:28:17.594Z,34.87
2018-09-19T11:30:46.505Z,34.52
2018-09-19T11:33:15.436Z,35.48
2018-09-19T11:35:44.391Z,35.26
2018-09-19T11:38:13.424Z,35.05
2018-09-19T11:40:42.669Z,35.37
2018-09-19T11:43:11.667Z,35.08
2018-09-19T11:45:40.564Z,35.49
2018-09-19T11:48:09.490Z,35.59
2018-09-19T11:50:38.421Z,35.12
2018-09-19T11:53:11.510Z,35.24
2018-09-19T11:55:40.437Z,34.23
2018-09-19T11:58:09.349Z,34.62
2018-09-19T12:00:38.260Z,34.55
2018-09-19T12:03:07.184Z,35.94
2018-09-19T12:05:36.160Z,36.15
2018-09-19T12:08:05.088Z,37.25
2018-09-19T12:10:34.072Z,35.78
2018-09-19T12:13:03.478Z,35.90
2018-09-19T12:15:32.405Z,34.92
2018-09-19T12:18:01.313Z,35.80
2018-09-19T12:20:30.288Z,36.06
2018-09-19T12:22:59.303Z,35.61
2018-09-19T12:25:32.578Z,35.34
2018-09-19T12:28:01.717Z,35.11
2018-09-19T12:30:30.696Z,34.58
2018-09-19T12:32:59.605Z,33.93
2018-09-19T12:35:28.572Z,34.33
2018-09-19T12:37:57.576Z,35.44
2018-09-19T12:40:26.517Z,34.60
2018-09-19T12:42:55.442Z,34.94
2018-09-19T12:45:24.365Z,34.56
2018-09-19T12:47:53.294Z,34.97
2018-09-19T12:50:22.248Z,34.56
2018-09-19T12:52:51.130Z,35.38
2018-09-19T12:55:20.107Z,35.55
2018-09-19T12:57:49.033Z,34.78
2018-09-19T13:00:17.940Z,35.44
2018-09-19T13:02:46.892Z,35.63
2018-09-19T13:05:15.806Z,35.74
2018-09-19T13:07:44.717Z,36.28
2018-09-19T13:10:13.623Z,36.92
2018-09-19T13:12:42.551Z,35.92
2018-09-19T13:15:11.596Z,35.51
2018-09-19T13:17:40.521Z,35.69
2018-09-19T13:20:09.427Z,35.53
2018-09-19T13:22:38.381Z,35.25
2018-09-19T13:25:07.308Z,34.90
2018-09-19T13:27:36.243Z,35.47
2018-09-19T13:30:05.146Z,36.83
2018-09-19T13:32:34.077Z,36.58
2018-09-19T13:35:03.093Z,37.17
2018-09-19T13:37:32.022Z,36.34
2018-09-19T13:40:00.940Z,36.47
2018-09-19T13:42:29.975Z,36.40
2018-09-19T13:44:58.890Z,35.93
2018-09-19T13:47:27.849Z,35.12
2018-09-19T13:49:59.908Z,35.52
2018-09-19T13:52:28.827Z,35.94
2018-09-19T13:54:57.741Z,35.82
2018-09-19T13:57:26.640Z,35.61
2018-09-19T13:59:55.585Z,35.79
2018-09-19T14:02:24.599Z,35.94
2018-09-19T14:04:53.488Z,35.82
2018-09-19T14:07:23.853Z,36.30
2018-09-19T14:09:52.756Z,35.38
2018-09-19T14:12:21.863Z,35.29
2018-09-19T14:14:50.808Z,35.83
2018-09-19T14:17:19.824Z,36.87
2018-09-19T14:19:48.784Z,36.05
2018-09-19T14:22:17.696Z,35.56
2018-09-19T14:24:47.779Z,35.47
2018-09-19T14:27:16.716Z,35.50
2018-09-19T14:29:45.683Z,35.80
2018-09-19T14:32:14.629Z,35.57
2018-09-19T14:34:43.575Z,34.90
2018-09-19T14:37:12.515Z,34.82
2018-09-19T14:39:41.489Z,34.39
2018-09-19T14:42:14.656Z,34.61
2018-09-19T14:44:43.747Z,34.55
2018-09-19T14:47:12.702Z,35.14
2018-09-19T14:49:41.636Z,34.57
2018-09-19T14:52:10.613Z,34.27
2018-09-19T14:54:39.550Z,35.23
2018-09-19T14:57:08.450Z,35.07
2018-09-19T14:59:38.120Z,34.72
2018-09-19T15:02:07.091Z,34.12
2018-09-19T15:04:36.008Z,34.49
2018-09-19T15:07:04.908Z,33.83
2018-09-19T15:09:33.837Z,34.33
2018-09-19T15:12:02.802Z,33.97
2018-09-19T15:14:31.739Z,34.53
2018-09-19T15:17:00.765Z,34.10
2018-09-19T15:19:29.708Z,34.73
2018-09-19T15:21:58.645Z,34.13
2018-09-19T15:24:27.602Z,34.59
2018-09-19T15:26:56.520Z,34.05
2018-09-19T15:29:25.411Z,34.52
2018-09-19T15:31:54.342Z,34.95
2018-09-19T15:34:23.258Z,35.06
2018-09-19T15:36:52.221Z,34.78
2018-09-19T15:39:21.119Z,35.03
2018-09-19T15:41:50.058Z,33.88
2018-09-19T15:44:19.074Z,33.91
2018-09-19T15:46:48.064Z,33.25
2018-09-19T15:49:16.968Z,32.91
2018-09-19T15:51:46.164Z,32.36
2018-09-19T15:54:15.084Z,32.93
2018-09-19T15:56:44.000Z,33.09
2018-09-19T15:59:12.945Z,33.18
2018-09-19T16:01:41.918Z,32.95
2018-09-19T16:04:10.862Z,32.43
2018-09-19T16:06:39.844Z,31.40
2018-09-19T16:09:10.332Z,30.81
2018-09-19T16:11:39.277Z,30.53
2018-09-19T16:14:08.752Z,30.47
2018-09-19T16:16:37.654Z,30.39
2018-09-19T16:19:06.566Z,30.13
2018-09-19T16:21:35.555Z,29.97
2018-09-19T16:24:05.627Z,29.82
2018-09-19T16:26:35.155Z,29.51
2018-09-19T16:29:04.100Z,29.08
2018-09-19T16:31:33.068Z,28.95
2018-09-19T16:34:02.007Z,28.85
2018-09-19T16:36:30.968Z,28.74
2018-09-19T16:38:59.993Z,28.51
2018-09-19T16:41:28.913Z,28.41
2018-09-19T16:43:57.847Z,28.32
2018-09-19T16:46:26.811Z,28.15
2018-09-19T16:48:55.753Z,28.07
2018-09-19T16:51:24.659Z,27.98
2018-09-19T16:53:53.635Z,27.94
2018-09-19T16:56:22.539Z,27.86
2018-09-19T16:58:51.513Z,27.79
2018-09-19T17:01:20.531Z,27.75
2018-09-19T17:03:49.528Z,27.65
2018-09-19T17:06:18.492Z,27.53
2018-09-19T17:08:47.452Z,27.51
2018-09-19T17:11:16.466Z,27.35
2018-09-19T17:13:45.380Z,27.23
2018-09-19T17:16:14.331Z,27.00
2018-09-19T17:18:43.290Z,26.81
2018-09-19T17:21:12.217Z,26.61
2018-09-19T17:23:41.127Z,26.36
2018-09-19T17:26:10.069Z,26.15
2018-09-19T17:28:39.270Z,26.04
2018-09-19T17:31:08.204Z,25.88
2018-09-19T17:33:37.340Z,25.70
2018-09-19T17:36:06.411Z,25.53
2018-09-19T17:38:35.389Z,25.39
2018-09-19T17:41:04.614Z,25.24
2018-09-19T17:43:33.528Z,25.19
2018-09-19T17:46:02.496Z,25.08
2018-09-19T17:48:31.439Z,25.01
2018-09-19T17:51:00.508Z,24.86
2018-09-19T17:53:29.416Z,24.76
2018-09-19T17:55:58.363Z,24.71
2018-09-19T17:58:27.304Z,24.64
2018-09-19T18:00:56.234Z,24.53
2018-09-19T18:03:25.061Z,24.44
2018-09-19T18:05:53.961Z,24.37
2018-09-19T18:08:22.900Z,24.18
2018-09-19T18:10:51.808Z,24.12
2018-09-19T18:13:20.755Z,24.02
2018-09-19T18:15:49.660Z,24.03
2018-09-19T18:18:18.795Z,23.97
2018-09-19T18:20:47.740Z,23.89
2018-09-19T18:23:16.681Z,23.87
2018-09-19T18:25:45.644Z,23.66
2018-09-19T18:28:14.653Z,23.64
2018-09-19T18:30:43.707Z,23.54
2018-09-19T18:33:12.677Z,23.49
2018-09-19T18:35:41.663Z,23.53
2018-09-19T18:38:10.778Z,23.46
2018-09-19T18:40:39.721Z,23.44
2018-09-19T18:43:08.841Z,23.48
2018-09-19T18:45:38.253Z,23.45
2018-09-19T18:48:07.185Z,23.35
2018-09-19T18:50:36.196Z,23.37
2018-09-19T18:53:05.244Z,23.43
2018-09-19T18:55:34.187Z,23.39
2018-09-19T18:58:03.248Z,23.40
2018-09-19T19:00:33.526Z,23.42
2018-09-19T19:03:02.516Z,23.36
2018-09-19T19:05:31.424Z,23.20
2018-09-19T19:08:00.345Z,23.09
2018-09-19T19:10:29.385Z,23.09
2018-09-19T19:12:58.726Z,23.07
2018-09-19T19:15:27.692Z,22.98
2018-09-19T19:17:57.607Z,22.79
2018-09-19T19:20:26.626Z,22.74
2018-09-19T19:22:55.595Z,22.77
2018-09-19T19:25:24.704Z,22.72
2018-09-19T19:27:53.629Z,22.78
2018-09-19T19:30:22.732Z,22.73
2018-09-19T19:32:51.650Z,22.65
2018-09-19T19:35:20.569Z,22.57
2018-09-19T19:37:49.684Z,22.45
2018-09-19T19:40:18.533Z,22.48
2018-09-19T19:42:47.475Z,22.42
2018-09-19T19:45:16.423Z,22.27
2018-09-19T19:47:45.317Z,22.22
2018-09-19T19:50:15.029Z,22.25
2018-09-19T19:52:44.005Z,22.21
2018-09-19T19:55:12.909Z,22.14
2018-09-19T19:57:41.936Z,22.05
2018-09-19T20:00:11.202Z,21.98
2018-09-19T20:02:40.157Z,21.99
2018-09-19T20:05:09.090Z,21.94
2018-09-19T20:07:38.064Z,21.94
2018-09-19T20:10:07.054Z,21.83
2018-09-19T20:12:36.077Z,21.73
2018-09-19T20:15:04.972Z,21.74
2018-09-19T20:17:33.894Z,21.67
2018-09-19T20:20:02.814Z,21.61
2018-09-19T20:22:31.831Z,21.56
2018-09-19T20:25:00.761Z,21.52
2018-09-19T20:27:29.691Z,21.50
2018-09-19T20:29:58.658Z,21.40
2018-09-19T20:32:27.517Z,21.45
2018-09-19T20:34:56.495Z,21.46
2018-09-19T20:37:25.396Z,21.40
2018-09-19T20:39:54.313Z,21.41
2018-09-19T20:42:23.246Z,21.38
2018-09-19T20:44:52.162Z,21.29
2018-09-19T20:47:21.068Z,21.23
2018-09-19T20:49:50.087Z,21.27
2018-09-19T20:52:19.060Z,21.23
2018-09-19T20:54:47.948Z,21.25
2018-09-19T20:57:16.879Z,21.17
2018-09-19T20:59:45.856Z,21.08
2018-09-19T21:02:14.749Z,21.00
2018-09-19T21:04:43.669Z,21.02
2018-09-19T21:07:12.558Z,20.98
2018-09-19T21:09:41.464Z,20.91
2018-09-19T21:12:10.391Z,20.91
2018-09-19T21:14:39.368Z,20.87
2018-09-19T21:17:08.303Z,20.93
2018-09-19T21:19:37.243Z,20.98
2018-09-19T21:22:06.274Z,20.88
2018-09-19T21:24:35.163Z,20.86
2018-09-19T21:27:04.153Z,20.91
2018-09-19T21:29:33.048Z,20.70
2018-09-19T21:32:01.974Z,20.74
2018-09-19T21:34:30.875Z,20.72
2018-09-19T21:36:59.797Z,20.80
2018-09-19T21:39:28.700Z,20.72
2018-09-19T21:41:57.621Z,20.54
2018-09-19T21:44:26.544Z,20.51
2018-09-19T21:46:55.526Z,20.43
2018-09-19T21:49:24.416Z,20.46
2018-09-19T21:51:53.432Z,20.40
2018-09-19T21:54:22.345Z,20.27
2018-09-19T21:56:51.366Z,20.18
2018-09-19T21:59:20.321Z,20.20
2018-09-19T22:01:53.423Z,20.21
2018-09-19T22:04:22.500Z,20.29
2018-09-19T22:06:51.530Z,20.24
2018-09-19T22:09:20.479Z,20.19
2018-09-19T22:11:49.390Z,20.34
2018-09-19T22:14:18.377Z,20.40
2018-09-19T22:16:47.313Z,20.38
2018-09-19T22:19:16.330Z,20.38
2018-09-19T22:21:45.220Z,20.28
2018-09-19T22:24:14.225Z,20.30
2018-09-19T22:26:43.116Z,20.33
2018-09-19T22:29:12.131Z,20.32
2018-09-19T22:31:41.032Z,20.29
2018-09-19T22:34:09.954Z,20.37
2018-09-19T22:36:39.026Z,20.30
2018-09-19T22:39:08.744Z,20.37
2018-09-19T22:41:37.640Z,20.38
2018-09-19T22:44:06.607Z,20.35
2018-09-19T22:46:35.497Z,20.23
2018-09-19T22:49:04.394Z,20.30
2018-09-19T22:51:33.303Z,20.41
2018-09-19T22:54:02.247Z,20.35
2018-09-19T22:56:31.181Z,20.30
2018-09-19T22:59:00.086Z,20.28
2018-09-19T23:01:35.786Z,20.12
2018-09-19T23:04:04.684Z,20.24
2018-09-19T23:06:33.623Z,20.22
2018-09-19T23:09:02.530Z,20.35
2018-09-19T23:11:31.432Z,20.14
2018-09-19T23:14:00.464Z,20.13
2018-09-19T23:16:29.402Z,20.13
2018-09-19T23:18:58.300Z,20.09
2018-09-19T23:21:27.228Z,20.10
2018-09-19T23:23:56.119Z,20.06
2018-09-19T23:26:25.059Z,19.99
2018-09-19T23:28:54.103Z,19.99
2018-09-19T23:31:23.100Z,20.00
2018-09-19T23:33:52.061Z,20.04
2018-09-19T23:36:20.956Z,19.99
2018-09-19T23:38:49.908Z,19.92
2018-09-19T23:41:18.864Z,19.91
2018-09-19T23:43:47.815Z,19.91
2018-09-19T23:46:16.761Z,19.84
2018-09-19T23:48:45.695Z,19.77
2018-09-19T23:51:14.635Z,19.76
2018-09-19T23:53:43.569Z,19.74
2018-09-19T23:56:12.497Z,19.66
2018-09-19T23:58:41.432Z,19.64
